Time;durP1;ratioP1;P1;durP2;ratioP2;P2;SDS_P1;SDS_P2;PMS_P1;PMS_P2;Temp;Humidity;BMP_temperature;BMP_pressure;BME280_temperature;BME280_humidity;BME280_pressure;Samples;Min_cycle;Max_cycle;Signal;HPM_P1;HPM_P2
2022/10/12 00:01:40;;;;;;;10.20;4.45;;;;;;;;;;2631269;52;21894;-81
2022/10/12 00:04:07;;;;;;;14.05;6.35;;;;;;;;;;2631906;52;21542;-81
2022/10/12 00:06:34;;;;;;;7.75;4.53;;;;;;;;;;2378022;56;21023;-81
2022/10/12 00:09:01;;;;;;;8.80;4.35;;;;;;;;;;2631459;52;21043;-81
2022/10/12 00:11:29;;;;;;;10.45;4.97;;;;;;;;;;2631517;52;21039;-81
2022/10/12 00:13:56;;;;;;;7.87;4.30;;;;;;;;;;2377589;56;21038;-81
2022/10/12 00:16:24;;;;;;;11.85;4.85;;;;;;;;;;2377318;56;21066;-80
2022/10/12 00:18:51;;;;;;;9.15;4.62;;;;;;;;;;2631599;52;21070;-81
2022/10/12 00:21:19;;;;;;;9.98;5.47;;;;;;;;;;2631375;52;21019;-82
2022/10/12 00:23:46;;;;;;;8.32;4.43;;;;;;;;;;2631105;52;21150;-81
2022/10/12 00:26:14;;;;;;;10.73;4.72;;;;;;;;;;2377642;56;21031;-81
2022/10/12 00:28:41;;;;;;;10.60;5.43;;;;;;;;;;2631804;52;21031;-80
2022/10/12 00:31:09;;;;;;;7.78;4.70;;;;;;;;;;2631212;52;21065;-80
2022/10/12 00:33:37;;;;;;;7.18;4.30;;;;;;;;;;2377978;56;21045;-81
2022/10/12 00:36:11;;;;;;;10.30;5.50;;;;;;;;;;2377771;56;21058;-80
2022/10/12 00:38:38;;;;;;;12.70;5.20;;;;;;;;;;2631945;52;21074;-81
2022/10/12 00:41:05;;;;;;;8.45;4.97;;;;;;;;;;2377193;56;21086;-80
2022/10/12 00:43:33;;;;;;;12.00;5.55;;;;;;;;;;2631611;52;21966;-81
2022/10/12 00:46:01;;;;;;;16.27;6.37;;;;;;;;;;2377812;56;21117;-80
2022/10/12 00:48:28;;;;;;;9.15;5.78;;;;;;;;;;2377530;56;21074;-81
2022/10/12 00:50:56;;;;;;;8.15;5.60;;;;;;;;;;2377541;56;21577;-80
2022/10/12 00:53:25;;;;;;;10.75;5.87;;;;;;;;;;2631858;52;21022;-81
2022/10/12 00:55:53;;;;;;;6.62;4.43;;;;;;;;;;2377602;56;21034;-81
2022/10/12 00:58:21;;;;;;;11.45;5.62;;;;;;;;;;2631399;52;21039;-80
2022/10/12 01:00:48;;;;;;;11.32;4.80;;;;;;;;;;2377243;56;21045;-81
2022/10/12 01:03:18;;;;;;;7.40;4.35;;;;;;;;;;2631883;52;21583;-81
2022/10/12 01:05:45;;;;;;;9.32;4.95;;;;;;;;;;2377345;56;21059;-81
2022/10/12 01:08:12;;;;;;;9.10;4.80;;;;;;;;;;2377829;56;21050;-80
2022/10/12 01:10:39;;;;;;;9.43;5.18;;;;;;;;;;2631632;52;21087;-80
2022/10/12 01:13:06;;;;;;;7.95;4.82;;;;;;;;;;2631691;52;21152;-81
2022/10/12 01:15:35;;;;;;;10.45;5.35;;;;;;;;;;2377296;56;21038;-81
2022/10/12 01:18:06;;;;;;;7.57;4.57;;;;;;;;;;2630668;52;21082;-81
2022/10/12 01:20:45;;;;;;;10.00;4.40;;;;;;;;;;2631198;52;21372;-80
2022/10/12 01:23:33;;;;;;;8.45;4.72;;;;;;;;;;2377744;56;21086;-80
2022/10/12 01:26:12;;;;;;;13.02;4.93;;;;;;;;;;2630973;52;21542;-80
2022/10/12 01:28:46;;;;;;;7.53;4.40;;;;;;;;;;2377615;56;21645;-80
2022/10/12 01:31:16;;;;;;;8.57;4.70;;;;;;;;;;2376994;56;21066;-81
2022/10/12 01:33:45;;;;;;;8.07;4.82;;;;;;;;;;2631311;52;21059;-81
2022/10/12 01:36:15;;;;;;;11.45;5.22;;;;;;;;;;2377547;56;21554;-80
2022/10/12 01:38:48;;;;;;;9.52;4.90;;;;;;;;;;2377857;56;21082;-80
2022/10/12 01:41:18;;;;;;;9.10;4.85;;;;;;;;;;2631342;52;21038;-81
2022/10/12 01:43:45;;;;;;;10.50;4.37;;;;;;;;;;2377070;56;21034;-80
2022/10/12 01:46:30;;;;;;;11.80;4.68;;;;;;;;;;2377625;56;21313;-80
2022/10/12 01:48:58;;;;;;;8.38;4.40;;;;;;;;;;2377535;56;21138;-80
2022/10/12 01:51:29;;;;;;;7.40;4.05;;;;;;;;;;2377282;56;21046;-80
2022/10/12 01:54:02;;;;;;;7.57;4.53;;;;;;;;;;2377532;56;21030;-81
2022/10/12 01:56:32;;;;;;;9.73;4.40;;;;;;;;;;2378044;56;21061;-80
2022/10/12 01:59:04;;;;;;;7.32;4.00;;;;;;;;;;2377502;56;21026;-80
2022/10/12 02:01:34;;;;;;;11.23;4.47;;;;;;;;;;2631580;52;21082;-80
2022/10/12 02:04:04;;;;;;;8.70;4.00;;;;;;;;;;2378245;56;21034;-80
2022/10/12 02:06:36;;;;;;;6.78;3.75;;;;;;;;;;2631844;52;21270;-81
2022/10/12 02:09:05;;;;;;;7.70;4.07;;;;;;;;;;2631789;52;21071;-80
2022/10/12 02:11:34;;;;;;;10.57;4.90;;;;;;;;;;2631650;52;21547;-80
2022/10/12 02:14:05;;;;;;;10.50;4.70;;;;;;;;;;2377787;56;21228;-81
2022/10/12 02:16:34;;;;;;;9.32;4.28;;;;;;;;;;2631130;52;21122;-79
2022/10/12 02:19:03;;;;;;;7.25;4.57;;;;;;;;;;2631969;52;21649;-80
2022/10/12 02:21:31;;;;;;;9.55;4.37;;;;;;;;;;2377554;56;21034;-80
2022/10/12 02:24:00;;;;;;;9.63;4.05;;;;;;;;;;2377654;56;21031;-79
2022/10/12 02:26:28;;;;;;;7.25;3.92;;;;;;;;;;2631883;52;21063;-80
2022/10/12 02:28:55;;;;;;;5.72;4.05;;;;;;;;;;2631927;52;21161;-80
2022/10/12 02:31:27;;;;;;;7.18;3.95;;;;;;;;;;2377567;56;21054;-80
2022/10/12 02:33:57;;;;;;;7.90;4.47;;;;;;;;;;2378059;56;21371;-80
2022/10/12 02:36:27;;;;;;;5.68;3.67;;;;;;;;;;2377856;56;21085;-80
2022/10/12 02:38:59;;;;;;;7.15;3.62;;;;;;;;;;2377368;56;21048;-80
2022/10/12 02:41:29;;;;;;;8.63;4.18;;;;;;;;;;2631753;52;21046;-80
2022/10/12 02:43:58;;;;;;;8.73;3.97;;;;;;;;;;2377577;56;21729;-80
2022/10/12 02:46:26;;;;;;;9.15;3.95;;;;;;;;;;2632128;52;21058;-80
2022/10/12 02:48:55;;;;;;;7.07;4.15;;;;;;;;;;2377995;56;21050;-80
2022/10/12 02:51:23;;;;;;;7.95;4.05;;;;;;;;;;2377859;56;21046;-80
2022/10/12 02:53:50;;;;;;;9.88;4.18;;;;;;;;;;2377192;56;21050;-79
2022/10/12 02:56:17;;;;;;;9.32;4.68;;;;;;;;;;2630538;52;21538;-80
2022/10/12 02:58:44;;;;;;;7.85;4.07;;;;;;;;;;2377147;56;21038;-81
2022/10/12 03:01:12;;;;;;;10.63;4.10;;;;;;;;;;2377700;56;21022;-80
2022/10/12 03:03:39;;;;;;;7.37;3.55;;;;;;;;;;2378106;56;21094;-79
2022/10/12 03:06:06;;;;;;;7.30;4.00;;;;;;;;;;2377817;56;21125;-80
2022/10/12 03:08:34;;;;;;;7.47;4.75;;;;;;;;;;2377706;56;21105;-80
2022/10/12 03:11:02;;;;;;;9.00;4.15;;;;;;;;;;2377255;56;21046;-80
2022/10/12 03:13:29;;;;;;;9.55;4.28;;;;;;;;;;2377436;56;21038;-80
2022/10/12 03:16:01;;;;;;;5.35;3.62;;;;;;;;;;2378040;56;21077;-80
2022/10/12 03:18:28;;;;;;;4.47;3.17;;;;;;;;;;2631953;52;21625;-80
2022/10/12 03:20:55;;;;;;;7.28;3.83;;;;;;;;;;2378074;56;21050;-80
2022/10/12 03:23:21;;;;;;;7.70;3.08;;;;;;;;;;2377995;56;21169;-80
2022/10/12 03:25:48;;;;;;;7.55;3.50;;;;;;;;;;2632193;52;21101;-80
2022/10/12 03:28:15;;;;;;;15.00;4.62;;;;;;;;;;2377726;56;21097;-80
2022/10/12 03:30:43;;;;;;;9.15;4.35;;;;;;;;;;2376502;56;21054;-78
2022/10/12 03:33:10;;;;;;;7.32;3.70;;;;;;;;;;2630870;52;21126;-80
2022/10/12 03:35:37;;;;;;;8.35;3.60;;;;;;;;;;2376987;56;21018;-81
2022/10/12 03:38:04;;;;;;;6.25;3.80;;;;;;;;;;2377927;56;21066;-80
2022/10/12 03:40:31;;;;;;;5.90;3.40;;;;;;;;;;2377536;56;21041;-80
2022/10/12 03:42:57;;;;;;;7.32;4.20;;;;;;;;;;2377875;56;21051;-80
2022/10/12 03:45:24;;;;;;;6.70;3.50;;;;;;;;;;2376930;56;21047;-80
2022/10/12 03:47:51;;;;;;;7.25;3.60;;;;;;;;;;2629583;52;21022;-81
2022/10/12 03:50:18;;;;;;;5.45;3.70;;;;;;;;;;2377058;56;21558;-81
2022/10/12 03:52:45;;;;;;;8.88;3.78;;;;;;;;;;2376540;56;21078;-81
2022/10/12 03:55:12;;;;;;;7.68;3.78;;;;;;;;;;2377003;56;21049;-81
2022/10/12 03:57:39;;;;;;;10.40;4.55;;;;;;;;;;2377637;56;21026;-81
2022/10/12 04:00:08;;;;;;;13.20;5.12;;;;;;;;;;2631481;52;21542;-80
2022/10/12 04:02:35;;;;;;;12.00;4.20;;;;;;;;;;2630478;52;21118;-81
2022/10/12 04:05:02;;;;;;;12.15;4.60;;;;;;;;;;2376898;56;21086;-80
2022/10/12 04:07:29;;;;;;;9.60;3.67;;;;;;;;;;2377460;56;21094;-82
2022/10/12 04:09:56;;;;;;;10.68;4.43;;;;;;;;;;2377779;56;21106;-81
2022/10/12 04:12:23;;;;;;;7.43;4.37;;;;;;;;;;2631177;52;21608;-81
2022/10/12 04:14:50;;;;;;;12.68;4.82;;;;;;;;;;2376897;56;21042;-80
2022/10/12 04:17:17;;;;;;;7.87;3.85;;;;;;;;;;2376889;56;21030;-80
2022/10/12 04:19:44;;;;;;;8.40;4.12;;;;;;;;;;2631861;52;21039;-82
2022/10/12 04:22:11;;;;;;;9.70;3.80;;;;;;;;;;2376288;56;21145;-80
2022/10/12 04:24:38;;;;;;;11.07;4.07;;;;;;;;;;2376495;56;21037;-80
2022/10/12 04:27:05;;;;;;;6.07;3.15;;;;;;;;;;2377088;56;21193;-81
2022/10/12 04:29:32;;;;;;;8.63;3.37;;;;;;;;;;2631716;52;21082;-82
2022/10/12 04:31:59;;;;;;;9.95;4.00;;;;;;;;;;2377450;56;21128;-81
2022/10/12 04:34:26;;;;;;;9.57;3.85;;;;;;;;;;2377924;56;21030;-81
2022/10/12 04:36:53;;;;;;;8.63;3.28;;;;;;;;;;2377800;56;21748;-80
2022/10/12 04:39:20;;;;;;;9.82;4.43;;;;;;;;;;2630897;52;21026;-81
2022/10/12 04:41:47;;;;;;;13.00;3.65;;;;;;;;;;2377230;56;21513;-81
2022/10/12 04:44:14;;;;;;;13.20;3.67;;;;;;;;;;2377649;56;21130;-81
2022/10/12 04:46:40;;;;;;;12.32;3.55;;;;;;;;;;2377537;56;21054;-81
2022/10/12 04:49:07;;;;;;;10.85;3.37;;;;;;;;;;2631300;52;21030;-81
2022/10/12 04:51:34;;;;;;;8.20;3.22;;;;;;;;;;2376772;56;21038;-80
2022/10/12 04:54:01;;;;;;;11.23;4.20;;;;;;;;;;2377357;56;21121;-81
2022/10/12 04:56:28;;;;;;;9.23;3.47;;;;;;;;;;2377797;56;21661;-81
2022/10/12 04:58:55;;;;;;;9.00;4.07;;;;;;;;;;2377472;56;21130;-81
2022/10/12 05:01:22;;;;;;;10.65;3.87;;;;;;;;;;2377795;56;21574;-81
2022/10/12 05:03:49;;;;;;;8.15;3.80;;;;;;;;;;2377406;56;21055;-81
2022/10/12 05:06:16;;;;;;;7.28;3.53;;;;;;;;;;2377930;56;21035;-82
2022/10/12 05:08:43;;;;;;;9.60;3.87;;;;;;;;;;2377536;56;21038;-81
2022/10/12 05:11:10;;;;;;;11.70;3.87;;;;;;;;;;2376751;56;21661;-81
2022/10/12 05:13:37;;;;;;;7.75;3.30;;;;;;;;;;2376622;56;21585;-80
2022/10/12 05:16:04;;;;;;;9.32;3.67;;;;;;;;;;2378032;56;21031;-82
2022/10/12 05:18:31;;;;;;;7.53;2.83;;;;;;;;;;2377724;56;21105;-80
2022/10/12 05:20:58;;;;;;;8.60;3.45;;;;;;;;;;2377594;56;21051;-79
2022/10/12 05:23:25;;;;;;;9.50;3.40;;;;;;;;;;2377938;56;21038;-80
2022/10/12 05:25:54;;;;;;;9.77;3.25;;;;;;;;;;2631223;52;21149;-79
2022/10/12 05:28:21;;;;;;;11.50;3.70;;;;;;;;;;2377675;56;21101;-79
2022/10/12 05:30:50;;;;;;;12.63;3.47;;;;;;;;;;2377066;56;21046;-79
2022/10/12 05:33:17;;;;;;;6.68;2.92;;;;;;;;;;2377998;56;21606;-79
2022/10/12 05:35:44;;;;;;;12.75;3.75;;;;;;;;;;2631786;52;21015;-80
2022/10/12 05:38:11;;;;;;;7.75;3.10;;;;;;;;;;2377879;56;21042;-80
2022/10/12 05:40:38;;;;;;;9.85;4.07;;;;;;;;;;2377646;56;21046;-78
2022/10/12 05:43:05;;;;;;;10.00;3.53;;;;;;;;;;2631085;52;21117;-80
2022/10/12 05:45:32;;;;;;;8.95;3.45;;;;;;;;;;2630824;52;21050;-79
2022/10/12 05:47:59;;;;;;;9.70;4.00;;;;;;;;;;2631315;52;21035;-80
2022/10/12 05:50:26;;;;;;;8.05;3.08;;;;;;;;;;2377676;56;21066;-80
2022/10/12 05:52:53;;;;;;;9.95;3.33;;;;;;;;;;2377488;56;21605;-79
2022/10/12 05:55:20;;;;;;;8.60;3.90;;;;;;;;;;2377753;56;21141;-80
2022/10/12 05:57:48;;;;;;;7.78;2.95;;;;;;;;;;2631279;52;21530;-80
2022/10/12 06:00:16;;;;;;;9.98;3.15;;;;;;;;;;2631012;52;21026;-79
2022/10/12 06:02:43;;;;;;;7.30;3.42;;;;;;;;;;2630839;52;21039;-80
2022/10/12 06:05:09;;;;;;;9.68;3.72;;;;;;;;;;2630984;52;21030;-80
2022/10/12 06:07:36;;;;;;;7.65;3.60;;;;;;;;;;2378203;56;21018;-79
2022/10/12 06:10:04;;;;;;;8.15;3.58;;;;;;;;;;2377605;56;21118;-79
2022/10/12 06:12:32;;;;;;;11.77;3.15;;;;;;;;;;2631213;52;21039;-80
2022/10/12 06:14:59;;;;;;;10.82;2.95;;;;;;;;;;2632004;52;21093;-79
2022/10/12 06:17:26;;;;;;;10.68;3.53;;;;;;;;;;2377256;56;21099;-79
2022/10/12 06:19:53;;;;;;;7.47;3.55;;;;;;;;;;2631123;52;21050;-80
2022/10/12 06:22:20;;;;;;;12.20;3.67;;;;;;;;;;2377103;56;21129;-79
2022/10/12 06:24:47;;;;;;;7.53;3.35;;;;;;;;;;2377674;56;21038;-79
2022/10/12 06:27:16;;;;;;;5.60;3.45;;;;;;;;;;2377777;56;21133;-80
2022/10/12 06:29:43;;;;;;;11.75;4.22;;;;;;;;;;2631613;52;21078;-80
2022/10/12 06:32:10;;;;;;;6.78;3.20;;;;;;;;;;2631428;52;21062;-81
2022/10/12 06:34:37;;;;;;;9.02;3.30;;;;;;;;;;2630801;52;21070;-79
2022/10/12 06:37:04;;;;;;;6.60;3.97;;;;;;;;;;2377380;56;21629;-80
2022/10/12 06:39:31;;;;;;;11.95;3.60;;;;;;;;;;2376893;56;21066;-80
2022/10/12 06:41:58;;;;;;;9.10;3.53;;;;;;;;;;2377423;56;21539;-80
2022/10/12 06:44:25;;;;;;;10.55;3.22;;;;;;;;;;2631959;52;21066;-80
2022/10/12 06:46:52;;;;;;;7.78;2.95;;;;;;;;;;2631569;52;21051;-81
2022/10/12 06:49:19;;;;;;;7.20;3.50;;;;;;;;;;2377706;56;21137;-79
2022/10/12 06:51:46;;;;;;;10.15;3.50;;;;;;;;;;2629881;52;21586;-80
2022/10/12 06:54:13;;;;;;;10.85;3.30;;;;;;;;;;2630417;52;21023;-79
2022/10/12 06:56:40;;;;;;;8.35;3.22;;;;;;;;;;2376924;56;21141;-79
2022/10/12 06:59:07;;;;;;;8.90;3.53;;;;;;;;;;2630554;52;21098;-79
2022/10/12 07:01:34;;;;;;;14.65;5.12;;;;;;;;;;2376331;56;21070;-79
2022/10/12 07:04:01;;;;;;;10.20;3.75;;;;;;;;;;2377092;56;21043;-79
2022/10/12 07:06:28;;;;;;;7.70;3.25;;;;;;;;;;2629775;52;21026;-80
2022/10/12 07:08:55;;;;;;;9.82;3.55;;;;;;;;;;2377557;56;21050;-79
2022/10/12 07:11:22;;;;;;;9.88;3.30;;;;;;;;;;2376575;56;21023;-78
2022/10/12 07:13:49;;;;;;;7.10;3.08;;;;;;;;;;2375941;56;21042;-79
2022/10/12 07:16:16;;;;;;;9.02;3.80;;;;;;;;;;2375233;56;21035;-79
2022/10/12 07:18:43;;;;;;;11.85;3.70;;;;;;;;;;2376157;56;21268;-79
2022/10/12 07:21:10;;;;;;;6.72;3.28;;;;;;;;;;2375471;56;21126;-79
2022/10/12 07:23:37;;;;;;;8.20;2.95;;;;;;;;;;2377387;56;21110;-79
2022/10/12 07:26:05;;;;;;;8.65;3.22;;;;;;;;;;2630527;52;21034;-79
2022/10/12 07:28:33;;;;;;;7.47;3.17;;;;;;;;;;2630833;52;21089;-79
2022/10/12 07:31:04;;;;;;;7.78;3.40;;;;;;;;;;2630401;52;21105;-80
2022/10/12 07:33:32;;;;;;;9.45;3.12;;;;;;;;;;2376530;56;21047;-80
2022/10/12 07:36:00;;;;;;;11.07;3.05;;;;;;;;;;2630331;52;21121;-80
2022/10/12 07:38:26;;;;;;;8.23;3.05;;;;;;;;;;2627257;52;21053;-79
2022/10/12 07:40:53;;;;;;;13.23;3.58;;;;;;;;;;2629252;52;21484;-79
2022/10/12 07:43:21;;;;;;;10.75;4.03;;;;;;;;;;2374219;56;21566;-79
2022/10/12 07:45:47;;;;;;;8.98;2.92;;;;;;;;;;2628673;52;21022;-78
2022/10/12 07:48:14;;;;;;;8.48;3.70;;;;;;;;;;2376536;56;21542;-79
2022/10/12 07:50:41;;;;;;;7.45;3.55;;;;;;;;;;2630255;52;21102;-79
2022/10/12 07:53:08;;;;;;;13.48;3.30;;;;;;;;;;2374955;56;21406;-80
2022/10/12 07:55:35;;;;;;;11.60;3.40;;;;;;;;;;2376035;56;21046;-79
2022/10/12 07:58:03;;;;;;;9.75;3.72;;;;;;;;;;2373610;56;21554;-80
2022/10/12 08:00:30;;;;;;;8.52;2.85;;;;;;;;;;2374708;56;21105;-79
2022/10/12 08:02:57;;;;;;;13.07;3.33;;;;;;;;;;2375988;56;21089;-80
2022/10/12 08:05:25;;;;;;;13.85;3.20;;;;;;;;;;2630444;52;21545;-79
2022/10/12 08:07:52;;;;;;;14.52;3.97;;;;;;;;;;2378462;56;21053;-81
2022/10/12 08:10:19;;;;;;;10.75;3.60;;;;;;;;;;2378553;56;21026;-80
2022/10/12 08:12:46;;;;;;;11.23;3.53;;;;;;;;;;2632603;52;21039;-81
2022/10/12 08:15:14;;;;;;;11.27;2.78;;;;;;;;;;2378062;56;21063;-81
2022/10/12 08:17:41;;;;;;;8.52;2.62;;;;;;;;;;2631660;52;21058;-81
2022/10/12 08:20:09;;;;;;;11.57;3.10;;;;;;;;;;2378842;56;21030;-81
2022/10/12 08:22:36;;;;;;;10.13;3.15;;;;;;;;;;2632126;52;21058;-80
2022/10/12 08:25:03;;;;;;;13.82;3.55;;;;;;;;;;2632545;52;21038;-80
2022/10/12 08:27:30;;;;;;;7.35;2.80;;;;;;;;;;2378782;56;21066;-81
2022/10/12 08:29:57;;;;;;;8.63;2.90;;;;;;;;;;2633001;52;21476;-81
2022/10/12 08:32:24;;;;;;;12.23;3.12;;;;;;;;;;2378058;56;21026;-80
2022/10/12 08:34:51;;;;;;;7.55;3.55;;;;;;;;;;2377817;56;21046;-81
2022/10/12 08:37:18;;;;;;;9.25;2.60;;;;;;;;;;2632826;52;21045;-81
2022/10/12 08:39:45;;;;;;;18.12;4.25;;;;;;;;;;2632993;52;21597;-80
2022/10/12 08:42:16;;;;;;;15.32;4.35;;;;;;;;;;2632817;52;21098;-81
2022/10/12 08:44:56;;;;;;;8.52;3.10;;;;;;;;;;2632881;52;21095;-80
2022/10/12 08:47:29;;;;;;;9.70;2.45;;;;;;;;;;2378338;56;21042;-81
2022/10/12 08:49:56;;;;;;;13.20;3.33;;;;;;;;;;2378817;56;21180;-80
2022/10/12 08:52:27;;;;;;;17.95;3.15;;;;;;;;;;2632328;52;21030;-81
2022/10/12 08:54:55;;;;;;;12.45;3.72;;;;;;;;;;2632558;52;21019;-81
2022/10/12 08:57:22;;;;;;;8.30;2.65;;;;;;;;;;2378713;56;21070;-80
2022/10/12 08:59:49;;;;;;;11.35;3.30;;;;;;;;;;2378480;56;21026;-81
2022/10/12 09:02:34;;;;;;;12.88;3.62;;;;;;;;;;2378683;56;21042;-80
2022/10/12 09:05:02;;;;;;;10.57;2.67;;;;;;;;;;2632559;52;21110;-81
2022/10/12 09:07:30;;;;;;;13.62;2.55;;;;;;;;;;2378328;56;21165;-82
2022/10/12 09:10:07;;;;;;;10.48;2.80;;;;;;;;;;2378587;56;21047;-81
2022/10/12 09:12:41;;;;;;;12.23;2.92;;;;;;;;;;2378575;56;21641;-80
2022/10/12 09:15:12;;;;;;;12.85;3.25;;;;;;;;;;2632358;52;21053;-80
2022/10/12 09:17:40;;;;;;;11.88;2.65;;;;;;;;;;2632876;52;21129;-81
2022/10/12 09:20:14;;;;;;;11.50;2.47;;;;;;;;;;2378527;56;21055;-80
2022/10/12 09:22:43;;;;;;;13.68;2.72;;;;;;;;;;2378106;56;21349;-80
2022/10/12 09:25:13;;;;;;;11.05;3.08;;;;;;;;;;2632410;52;21058;-80
2022/10/12 09:27:41;;;;;;;10.13;2.55;;;;;;;;;;2632374;52;21031;-80
2022/10/12 09:30:12;;;;;;;8.32;2.12;;;;;;;;;;2378118;56;21018;-82
2022/10/12 09:32:54;;;;;;;11.07;3.35;;;;;;;;;;2378246;56;21067;-81
2022/10/12 09:35:21;;;;;;;9.40;2.37;;;;;;;;;;2632416;52;21440;-80
2022/10/12 09:37:50;;;;;;;8.38;3.20;;;;;;;;;;2378112;56;21098;-79
2022/10/12 09:40:21;;;;;;;9.23;2.97;;;;;;;;;;2631702;52;21034;-80
2022/10/12 09:42:48;;;;;;;19.83;3.72;;;;;;;;;;2377793;56;21026;-80
2022/10/12 09:45:17;;;;;;;11.55;2.45;;;;;;;;;;2630648;52;21054;-77
2022/10/12 09:48:08;;;;;;;9.63;1.95;;;;;;;;;;2375084;56;21058;-77
2022/10/12 09:50:39;;;;;;;7.78;2.22;;;;;;;;;;2377422;56;21054;-82
2022/10/12 09:53:12;;;;;;;9.05;2.67;;;;;;;;;;2630113;52;21050;-80
2022/10/12 09:55:39;;;;;;;9.95;2.22;;;;;;;;;;2375250;56;21089;-81
2022/10/12 09:58:17;;;;;;;12.60;3.30;;;;;;;;;;2376075;56;21026;-81
2022/10/12 10:00:44;;;;;;;9.60;2.22;;;;;;;;;;2375834;56;21035;-81
2022/10/12 10:03:22;;;;;;;8.57;2.15;;;;;;;;;;2376932;56;21106;-81
2022/10/12 10:06:01;;;;;;;7.03;2.20;;;;;;;;;;2376463;56;21042;-81
2022/10/12 10:08:29;;;;;;;9.43;2.10;;;;;;;;;;2378399;56;21090;-79
2022/10/12 10:10:57;;;;;;;9.10;2.37;;;;;;;;;;2376964;56;21590;-80
2022/10/12 10:13:26;;;;;;;11.88;2.40;;;;;;;;;;2376846;56;21062;-79
2022/10/12 10:16:03;;;;;;;13.40;2.33;;;;;;;;;;2376702;56;21097;-80
2022/10/12 10:18:33;;;;;;;8.57;2.20;;;;;;;;;;2377514;56;21184;-82
2022/10/12 10:21:01;;;;;;;9.82;2.15;;;;;;;;;;2377580;56;21034;-81
2022/10/12 10:23:30;;;;;;;10.65;1.62;;;;;;;;;;2377785;56;21050;-80
2022/10/12 10:25:58;;;;;;;12.18;3.10;;;;;;;;;;2631407;52;21054;-80
2022/10/12 10:28:27;;;;;;;7.93;1.65;;;;;;;;;;2632122;52;21086;-81
2022/10/12 10:30:58;;;;;;;9.35;2.55;;;;;;;;;;2631798;52;21098;-79
2022/10/12 10:33:25;;;;;;;9.52;2.25;;;;;;;;;;2378558;56;21058;-81
2022/10/12 10:35:57;;;;;;;8.98;1.77;;;;;;;;;;2632132;52;21145;-80
2022/10/12 10:38:24;;;;;;;9.32;2.28;;;;;;;;;;2377646;56;21042;-81
2022/10/12 10:40:51;;;;;;;10.50;2.53;;;;;;;;;;2377579;56;21074;-80
2022/10/12 10:43:21;;;;;;;9.85;2.37;;;;;;;;;;2378326;56;21031;-81
2022/10/12 10:45:50;;;;;;;10.50;2.75;;;;;;;;;;2377903;56;21022;-81
2022/10/12 10:48:18;;;;;;;9.13;2.10;;;;;;;;;;2631389;52;21043;-81
2022/10/12 10:50:50;;;;;;;8.57;2.10;;;;;;;;;;2377159;56;21026;-80
2022/10/12 10:53:19;;;;;;;8.27;1.98;;;;;;;;;;2631607;52;21511;-80
2022/10/12 10:55:50;;;;;;;5.40;1.87;;;;;;;;;;2377510;56;21602;-83
2022/10/12 10:58:20;;;;;;;8.48;2.30;;;;;;;;;;2631802;52;21058;-81
2022/10/12 11:00:48;;;;;;;4.30;1.42;;;;;;;;;;2377266;56;21047;-80
2022/10/12 11:03:18;;;;;;;9.68;2.55;;;;;;;;;;2377930;56;21085;-81
2022/10/12 11:05:48;;;;;;;10.93;2.65;;;;;;;;;;2378049;56;21050;-81
2022/10/12 11:08:17;;;;;;;6.75;1.80;;;;;;;;;;2632046;52;21105;-80
2022/10/12 11:10:47;;;;;;;6.35;1.70;;;;;;;;;;2631283;52;21062;-81
2022/10/12 11:13:17;;;;;;;12.00;2.22;;;;;;;;;;2378588;56;21058;-82
2022/10/12 11:15:47;;;;;;;7.55;1.85;;;;;;;;;;2378467;56;21038;-82
2022/10/12 11:18:18;;;;;;;6.90;1.70;;;;;;;;;;2632096;52;21037;-82
2022/10/12 11:20:51;;;;;;;9.00;2.28;;;;;;;;;;2377901;56;21058;-82
2022/10/12 11:23:27;;;;;;;11.73;2.30;;;;;;;;;;2376679;56;21145;-82
2022/10/12 11:26:01;;;;;;;6.62;2.05;;;;;;;;;;2628942;52;21086;-82
2022/10/12 11:28:29;;;;;;;9.38;2.00;;;;;;;;;;2630920;52;21074;-82
2022/10/12 11:30:57;;;;;;;4.93;1.60;;;;;;;;;;2377256;56;21121;-82
2022/10/12 11:33:25;;;;;;;12.00;2.55;;;;;;;;;;2631905;52;21034;-82
2022/10/12 11:35:53;;;;;;;6.75;1.85;;;;;;;;;;2377105;56;21070;-83
2022/10/12 11:38:22;;;;;;;3.72;1.60;;;;;;;;;;2377105;56;21019;-83
2022/10/12 11:40:51;;;;;;;7.37;2.30;;;;;;;;;;2630744;52;21101;-82
2022/10/12 11:43:21;;;;;;;8.93;2.00;;;;;;;;;;2631031;52;21085;-82
2022/10/12 11:45:49;;;;;;;5.68;1.73;;;;;;;;;;2376665;56;21039;-82
2022/10/12 11:48:20;;;;;;;8.98;2.40;;;;;;;;;;2377642;56;21042;-82
2022/10/12 11:50:48;;;;;;;5.50;1.95;;;;;;;;;;2631046;52;21104;-83
2022/10/12 11:53:19;;;;;;;5.32;2.40;;;;;;;;;;2630675;52;21425;-82
2022/10/12 11:58:26;;;;;;;8.18;2.60;;;;;;;;;;2353482;57;22050;-75
2022/10/12 12:01:02;;;;;;;6.35;1.75;;;;;;;;;;2345274;57;22303;-75
2022/10/12 12:03:30;;;;;;;7.00;1.75;;;;;;;;;;2345940;57;21615;-74
2022/10/12 12:06:39;;;;;;;8.43;2.42;;;;;;;;;;2373071;56;21106;-76
2022/10/12 12:09:18;;;;;;;4.55;1.70;;;;;;;;;;2374414;56;21051;-75
2022/10/12 12:11:45;;;;;;;5.05;1.50;;;;;;;;;;2626546;52;21034;-76
2022/10/12 12:14:45;;;;;;;7.87;1.98;;;;;;;;;;2372005;56;21122;-74
2022/10/12 12:17:14;;;;;;;6.20;1.58;;;;;;;;;;2373430;56;21110;-76
2022/10/12 12:19:42;;;;;;;7.28;1.55;;;;;;;;;;2627721;52;21071;-75
2022/10/12 12:22:16;;;;;;;3.65;1.80;;;;;;;;;;2373544;56;21099;-75
2022/10/12 12:24:52;;;;;;;4.22;1.40;;;;;;;;;;2627640;52;21122;-73
2022/10/12 12:27:23;;;;;;;8.25;1.52;;;;;;;;;;2374105;56;21043;-75
2022/10/12 12:29:51;;;;;;;5.25;1.90;;;;;;;;;;2373959;56;21043;-75
2022/10/12 12:32:18;;;;;;;5.72;1.62;;;;;;;;;;2370832;56;21050;-73
2022/10/12 12:34:51;;;;;;;5.28;1.60;;;;;;;;;;2373112;56;21042;-75
2022/10/12 12:37:19;;;;;;;6.33;1.90;;;;;;;;;;2374229;56;21063;-74
2022/10/12 12:39:51;;;;;;;6.00;1.40;;;;;;;;;;2373644;56;22215;-74
2022/10/12 12:42:22;;;;;;;5.82;1.70;;;;;;;;;;2373123;56;21062;-74
2022/10/12 12:44:49;;;;;;;4.65;1.90;;;;;;;;;;2373920;56;21656;-75
2022/10/12 12:47:18;;;;;;;3.42;1.20;;;;;;;;;;2373169;56;21066;-75
2022/10/12 12:49:46;;;;;;;5.40;2.03;;;;;;;;;;2372943;56;21043;-75
2022/10/12 12:52:16;;;;;;;8.77;1.90;;;;;;;;;;2372927;56;21035;-75
2022/10/12 12:54:47;;;;;;;6.78;1.87;;;;;;;;;;2373416;56;21568;-75
2022/10/12 12:57:26;;;;;;;5.32;1.67;;;;;;;;;;2373828;56;21513;-74
2022/10/12 13:00:06;;;;;;;9.38;2.20;;;;;;;;;;2373560;56;21122;-75
2022/10/12 13:02:45;;;;;;;6.12;1.37;;;;;;;;;;2625840;52;21098;-74
2022/10/12 13:05:31;;;;;;;7.57;1.83;;;;;;;;;;2372367;56;21529;-75
2022/10/12 13:08:06;;;;;;;6.05;1.60;;;;;;;;;;2624506;52;21612;-74
2022/10/12 13:10:38;;;;;;;6.12;1.62;;;;;;;;;;2370964;56;21034;-73
2022/10/12 13:13:13;;;;;;;8.55;1.75;;;;;;;;;;2372165;56;21680;-74
2022/10/12 13:16:02;;;;;;;5.72;1.75;;;;;;;;;;2372211;56;21182;-75
2022/10/12 13:21:26;;;;;;;7.07;2.72;;;;;;;;;;2535633;54;22605;-78
2022/10/12 13:23:56;;;;;;;4.25;1.58;;;;;;;;;;2293099;58;21063;-74
2022/10/12 13:26:26;;;;;;;7.57;1.83;;;;;;;;;;2314520;58;21065;-75
2022/10/12 13:28:54;;;;;;;6.15;1.80;;;;;;;;;;2316762;58;21926;-76
2022/10/12 13:31:25;;;;;;;8.27;1.67;;;;;;;;;;2316254;58;21634;-74
2022/10/12 13:33:58;;;;;;;6.95;1.85;;;;;;;;;;2317288;58;21144;-76
2022/10/12 13:36:26;;;;;;;5.22;1.90;;;;;;;;;;2317647;58;21650;-76
2022/10/12 13:38:55;;;;;;;5.03;1.60;;;;;;;;;;2317615;58;21559;-77
2022/10/12 13:41:24;;;;;;;6.15;1.60;;;;;;;;;;2317547;58;21073;-75
2022/10/12 13:43:53;;;;;;;3.87;1.75;;;;;;;;;;2314241;58;21068;-76
2022/10/12 13:46:35;;;;;;;6.87;1.73;;;;;;;;;;2557376;54;21053;-75
2022/10/12 13:49:03;;;;;;;4.53;1.60;;;;;;;;;;2316566;58;21574;-75
2022/10/12 13:51:30;;;;;;;8.85;1.80;;;;;;;;;;2556630;54;21052;-75
2022/10/12 13:53:57;;;;;;;3.40;1.35;;;;;;;;;;2316638;58;21072;-76
2022/10/12 13:56:25;;;;;;;3.97;1.55;;;;;;;;;;2316837;58;21658;-77
2022/10/12 13:58:56;;;;;;;4.40;1.52;;;;;;;;;;2316317;58;21646;-77
2022/10/12 14:01:23;;;;;;;6.40;2.00;;;;;;;;;;2554959;54;21128;-75
2022/10/12 14:03:50;;;;;;;5.78;1.98;;;;;;;;;;2556884;54;21641;-75
2022/10/12 14:06:26;;;;;;;10.23;2.20;;;;;;;;;;2317027;58;21384;-76
2022/10/12 14:08:54;;;;;;;4.20;1.48;;;;;;;;;;2316552;58;21064;-76
2022/10/12 14:11:21;;;;;;;5.30;1.62;;;;;;;;;;2316361;58;21134;-76
2022/10/12 14:13:49;;;;;;;5.78;1.50;;;;;;;;;;2316302;58;21064;-75
2022/10/12 14:16:16;;;;;;;11.07;2.12;;;;;;;;;;2316462;58;21120;-75
2022/10/12 14:18:44;;;;;;;4.37;1.37;;;;;;;;;;2315203;58;21124;-77
2022/10/12 14:21:15;;;;;;;6.87;1.70;;;;;;;;;;2316359;58;21539;-76
2022/10/12 14:23:43;;;;;;;5.12;1.30;;;;;;;;;;2314610;58;21048;-77
2022/10/12 14:26:18;;;;;;;8.75;2.35;;;;;;;;;;2315790;58;21164;-77
2022/10/12 14:28:45;;;;;;;13.68;1.80;;;;;;;;;;2317502;58;21139;-76
2022/10/12 14:31:12;;;;;;;12.18;3.90;;;;;;;;;;2316486;58;21121;-76
2022/10/12 14:33:39;;;;;;;12.00;2.03;;;;;;;;;;2314614;58;21064;-76
2022/10/12 14:36:14;;;;;;;5.70;1.50;;;;;;;;;;2316504;58;21072;-77
2022/10/12 14:38:42;;;;;;;8.77;1.85;;;;;;;;;;2316390;58;21396;-76
2022/10/12 14:41:28;;;;;;;4.62;1.42;;;;;;;;;;2555207;54;21195;-74
2022/10/12 14:44:03;;;;;;;5.47;1.55;;;;;;;;;;2314744;58;21077;-74
2022/10/12 14:46:30;;;;;;;8.10;2.03;;;;;;;;;;2315516;58;21116;-74
2022/10/12 14:48:57;;;;;;;4.80;1.75;;;;;;;;;;2315118;58;21072;-74
2022/10/12 14:51:24;;;;;;;5.90;1.45;;;;;;;;;;2314122;58;21400;-75
2022/10/12 14:53:58;;;;;;;6.68;1.73;;;;;;;;;;2555012;54;21141;-75
2022/10/12 14:56:25;;;;;;;5.93;1.58;;;;;;;;;;2554420;54;21559;-75